sensor_id;sensor_type;location;lat;lon;timestamp;temperature;humidity
42715;DHT22;28351;51.480;5.706;2023-04-06T00:00:55;2.50;99.90
42715;DHT22;28351;51.480;5.706;2023-04-06T00:03:20;2.40;99.90
42715;DHT22;28351;51.480;5.706;2023-04-06T00:05:47;2.40;99.90
42715;DHT22;28351;51.480;5.706;2023-04-06T00:08:13;2.40;99.90
42715;DHT22;28351;51.480;5.706;2023-04-06T00:10:38;2.30;99.90
42715;DHT22;28351;51.480;5.706;2023-04-06T00:13:06;2.30;99.90
42715;DHT22;28351;51.480;5.706;2023-04-06T00:15:32;2.30;99.90
42715;DHT22;28351;51.480;5.706;2023-04-06T00:17:57;2.20;99.90
42715;DHT22;28351;51.480;5.706;2023-04-06T00:20:23;2.30;99.90
42715;DHT22;28351;51.480;5.706;2023-04-06T00:22:49;2.30;99.90
42715;DHT22;28351;51.480;5.706;2023-04-06T00:25:14;2.30;99.90
42715;DHT22;28351;51.480;5.706;2023-04-06T00:27:41;2.20;99.90
42715;DHT22;28351;51.480;5.706;2023-04-06T00:30:07;2.20;99.90
42715;DHT22;28351;51.480;5.706;2023-04-06T00:32:33;2.20;99.90
42715;DHT22;28351;51.480;5.706;2023-04-06T00:34:59;2.20;99.90
42715;DHT22;28351;51.480;5.706;2023-04-06T00:37:27;2.20;99.90
42715;DHT22;28351;51.480;5.706;2023-04-06T00:39:53;2.20;99.90
42715;DHT22;28351;51.480;5.706;2023-04-06T00:42:19;2.20;99.90
42715;DHT22;28351;51.480;5.706;2023-04-06T00:44:52;2.10;99.90
42715;DHT22;28351;51.480;5.706;2023-04-06T00:47:17;2.10;99.90
42715;DHT22;28351;51.480;5.706;2023-04-06T00:49:43;2.00;99.90
42715;DHT22;28351;51.480;5.706;2023-04-06T00:52:09;2.00;99.90
42715;DHT22;28351;51.480;5.706;2023-04-06T00:54:34;2.00;99.90
42715;DHT22;28351;51.480;5.706;2023-04-06T00:57:00;2.00;99.90
42715;DHT22;28351;51.480;5.706;2023-04-06T00:59:28;2.10;99.90
42715;DHT22;28351;51.480;5.706;2023-04-06T01:01:54;2.00;99.90
42715;DHT22;28351;51.480;5.706;2023-04-06T01:04:19;1.90;99.90
42715;DHT22;28351;51.480;5.706;2023-04-06T01:06:47;1.90;99.90
42715;DHT22;28351;51.480;5.706;2023-04-06T01:09:13;1.90;99.90
42715;DHT22;28351;51.480;5.706;2023-04-06T01:11:38;1.80;99.90
42715;DHT22;28351;51.480;5.706;2023-04-06T01:14:07;1.80;99.90
42715;DHT22;28351;51.480;5.706;2023-04-06T01:16:33;1.80;99.90
42715;DHT22;28351;51.480;5.706;2023-04-06T01:18:59;1.80;99.90
42715;DHT22;28351;51.480;5.706;2023-04-06T01:21:25;1.80;99.90
42715;DHT22;28351;51.480;5.706;2023-04-06T01:23:51;1.80;99.90
42715;DHT22;28351;51.480;5.706;2023-04-06T01:26:16;1.80;99.90
42715;DHT22;28351;51.480;5.706;2023-04-06T01:28:42;1.80;99.90
42715;DHT22;28351;51.480;5.706;2023-04-06T01:31:10;1.80;99.90
42715;DHT22;28351;51.480;5.706;2023-04-06T01:33:35;1.70;99.90
42715;DHT22;28351;51.480;5.706;2023-04-06T01:36:02;1.70;99.90
42715;DHT22;28351;51.480;5.706;2023-04-06T01:38:27;1.70;99.90
42715;DHT22;28351;51.480;5.706;2023-04-06T01:40:53;1.70;99.90
42715;DHT22;28351;51.480;5.706;2023-04-06T01:43:19;1.60;99.90
42715;DHT22;28351;51.480;5.706;2023-04-06T01:45:45;1.80;99.90
42715;DHT22;28351;51.480;5.706;2023-04-06T01:48:10;1.70;99.90
42715;DHT22;28351;51.480;5.706;2023-04-06T01:50:36;1.70;99.90
42715;DHT22;28351;51.480;5.706;2023-04-06T01:53:01;1.70;99.90
42715;DHT22;28351;51.480;5.706;2023-04-06T01:55:27;1.70;99.90
42715;DHT22;28351;51.480;5.706;2023-04-06T01:57:52;1.70;99.90
42715;DHT22;28351;51.480;5.706;2023-04-06T02:00:18;1.80;99.90
42715;DHT22;28351;51.480;5.706;2023-04-06T02:02:44;1.90;99.90
42715;DHT22;28351;51.480;5.706;2023-04-06T02:05:09;1.90;99.90
42715;DHT22;28351;51.480;5.706;2023-04-06T02:07:35;2.00;99.90
42715;DHT22;28351;51.480;5.706;2023-04-06T02:10:02;1.90;99.90
42715;DHT22;28351;51.480;5.706;2023-04-06T02:12:27;1.90;99.90
42715;DHT22;28351;51.480;5.706;2023-04-06T02:14:53;1.90;99.90
42715;DHT22;28351;51.480;5.706;2023-04-06T02:17:21;2.00;99.90
42715;DHT22;28351;51.480;5.706;2023-04-06T02:19:47;2.00;99.90
42715;DHT22;28351;51.480;5.706;2023-04-06T02:22:12;2.10;99.90
42715;DHT22;28351;51.480;5.706;2023-04-06T02:24:38;2.10;99.90
42715;DHT22;28351;51.480;5.706;2023-04-06T02:27:04;2.10;99.90
42715;DHT22;28351;51.480;5.706;2023-04-06T02:29:29;2.10;99.90
42715;DHT22;28351;51.480;5.706;2023-04-06T02:31:55;2.20;99.90
42715;DHT22;28351;51.480;5.706;2023-04-06T02:34:20;2.20;99.90
42715;DHT22;28351;51.480;5.706;2023-04-06T02:36:47;2.30;99.90
42715;DHT22;28351;51.480;5.706;2023-04-06T02:39:14;2.30;99.90
42715;DHT22;28351;51.480;5.706;2023-04-06T02:41:39;2.40;99.90
42715;DHT22;28351;51.480;5.706;2023-04-06T02:44:08;2.40;99.90
42715;DHT22;28351;51.480;5.706;2023-04-06T02:46:34;2.40;99.90
42715;DHT22;28351;51.480;5.706;2023-04-06T02:49:00;2.40;99.90
42715;DHT22;28351;51.480;5.706;2023-04-06T02:51:26;2.50;99.90
42715;DHT22;28351;51.480;5.706;2023-04-06T02:53:52;2.60;99.90
42715;DHT22;28351;51.480;5.706;2023-04-06T02:56:18;2.60;99.90
42715;DHT22;28351;51.480;5.706;2023-04-06T02:58:45;2.70;99.90
42715;DHT22;28351;51.480;5.706;2023-04-06T03:01:11;2.70;99.90
42715;DHT22;28351;51.480;5.706;2023-04-06T03:03:36;2.80;99.90
42715;DHT22;28351;51.480;5.706;2023-04-06T03:06:02;2.80;99.90
42715;DHT22;28351;51.480;5.706;2023-04-06T03:08:28;2.80;99.90
42715;DHT22;28351;51.480;5.706;2023-04-06T03:10:54;2.80;99.90
42715;DHT22;28351;51.480;5.706;2023-04-06T03:13:20;2.80;99.90
42715;DHT22;28351;51.480;5.706;2023-04-06T03:15:45;2.90;99.90
42715;DHT22;28351;51.480;5.706;2023-04-06T03:18:11;2.90;99.90
42715;DHT22;28351;51.480;5.706;2023-04-06T03:20:36;2.90;99.90
42715;DHT22;28351;51.480;5.706;2023-04-06T03:23:02;3.00;99.90
42715;DHT22;28351;51.480;5.706;2023-04-06T03:25:28;3.00;99.90
42715;DHT22;28351;51.480;5.706;2023-04-06T03:27:58;3.00;99.90
42715;DHT22;28351;51.480;5.706;2023-04-06T03:30:23;3.10;99.90
42715;DHT22;28351;51.480;5.706;2023-04-06T03:32:49;3.10;99.90
42715;DHT22;28351;51.480;5.706;2023-04-06T03:35:15;3.20;99.90
42715;DHT22;28351;51.480;5.706;2023-04-06T03:37:41;3.20;99.90
42715;DHT22;28351;51.480;5.706;2023-04-06T03:40:06;3.20;99.90
42715;DHT22;28351;51.480;5.706;2023-04-06T03:42:32;3.20;99.90
42715;DHT22;28351;51.480;5.706;2023-04-06T03:44:58;3.20;99.90
42715;DHT22;28351;51.480;5.706;2023-04-06T03:47:24;3.30;99.90
42715;DHT22;28351;51.480;5.706;2023-04-06T03:49:50;3.30;99.90
42715;DHT22;28351;51.480;5.706;2023-04-06T03:52:16;3.30;99.90
42715;DHT22;28351;51.480;5.706;2023-04-06T03:54:41;3.30;99.90
42715;DHT22;28351;51.480;5.706;2023-04-06T03:57:07;3.30;99.90
42715;DHT22;28351;51.480;5.706;2023-04-06T03:59:32;3.30;99.90
42715;DHT22;28351;51.480;5.706;2023-04-06T04:01:58;3.30;99.90
42715;DHT22;28351;51.480;5.706;2023-04-06T04:04:30;3.40;99.90
42715;DHT22;28351;51.480;5.706;2023-04-06T04:06:55;3.30;99.90
42715;DHT22;28351;51.480;5.706;2023-04-06T04:09:21;3.30;99.90
42715;DHT22;28351;51.480;5.706;2023-04-06T04:11:46;3.30;99.90
42715;DHT22;28351;51.480;5.706;2023-04-06T04:14:12;3.30;99.90
42715;DHT22;28351;51.480;5.706;2023-04-06T04:16:38;3.20;99.90
42715;DHT22;28351;51.480;5.706;2023-04-06T04:19:07;3.20;99.90
42715;DHT22;28351;51.480;5.706;2023-04-06T04:21:42;3.20;99.90
42715;DHT22;28351;51.480;5.706;2023-04-06T04:24:09;3.10;99.90
42715;DHT22;28351;51.480;5.706;2023-04-06T04:26:35;3.10;99.90
42715;DHT22;28351;51.480;5.706;2023-04-06T04:29:00;3.10;99.90
42715;DHT22;28351;51.480;5.706;2023-04-06T04:31:26;3.00;99.90
42715;DHT22;28351;51.480;5.706;2023-04-06T04:33:52;3.00;99.90
42715;DHT22;28351;51.480;5.706;2023-04-06T04:36:17;3.00;99.90
42715;DHT22;28351;51.480;5.706;2023-04-06T04:38:43;3.10;99.90
42715;DHT22;28351;51.480;5.706;2023-04-06T04:41:08;3.10;99.90
42715;DHT22;28351;51.480;5.706;2023-04-06T04:43:34;3.20;99.90
42715;DHT22;28351;51.480;5.706;2023-04-06T04:45:59;3.20;99.90
42715;DHT22;28351;51.480;5.706;2023-04-06T04:48:25;3.20;99.90
42715;DHT22;28351;51.480;5.706;2023-04-06T04:50:51;3.20;99.90
42715;DHT22;28351;51.480;5.706;2023-04-06T04:53:17;3.20;99.90
42715;DHT22;28351;51.480;5.706;2023-04-06T04:55:42;3.30;99.90
42715;DHT22;28351;51.480;5.706;2023-04-06T04:58:08;3.20;99.90
42715;DHT22;28351;51.480;5.706;2023-04-06T05:00:34;3.30;99.90
42715;DHT22;28351;51.480;5.706;2023-04-06T05:03:00;3.20;99.90
42715;DHT22;28351;51.480;5.706;2023-04-06T05:05:26;3.20;99.90
42715;DHT22;28351;51.480;5.706;2023-04-06T05:07:51;3.20;99.90
42715;DHT22;28351;51.480;5.706;2023-04-06T05:10:17;3.20;99.90
42715;DHT22;28351;51.480;5.706;2023-04-06T05:12:42;3.20;99.90
42715;DHT22;28351;51.480;5.706;2023-04-06T05:15:09;3.10;99.90
42715;DHT22;28351;51.480;5.706;2023-04-06T05:17:35;3.10;99.90
42715;DHT22;28351;51.480;5.706;2023-04-06T05:20:00;3.10;99.90
42715;DHT22;28351;51.480;5.706;2023-04-06T05:22:26;3.20;99.90
42715;DHT22;28351;51.480;5.706;2023-04-06T05:24:54;3.20;99.90
42715;DHT22;28351;51.480;5.706;2023-04-06T05:27:20;3.30;99.90
42715;DHT22;28351;51.480;5.706;2023-04-06T05:29:45;3.40;99.90
42715;DHT22;28351;51.480;5.706;2023-04-06T05:32:11;3.50;99.90
42715;DHT22;28351;51.480;5.706;2023-04-06T05:34:37;3.50;99.90
42715;DHT22;28351;51.480;5.706;2023-04-06T05:37:05;3.60;99.90
42715;DHT22;28351;51.480;5.706;2023-04-06T05:39:31;3.70;99.90
42715;DHT22;28351;51.480;5.706;2023-04-06T05:41:56;3.70;99.90
42715;DHT22;28351;51.480;5.706;2023-04-06T05:44:22;3.80;99.90
42715;DHT22;28351;51.480;5.706;2023-04-06T05:46:47;3.80;99.90
42715;DHT22;28351;51.480;5.706;2023-04-06T05:49:13;3.90;99.90
42715;DHT22;28351;51.480;5.706;2023-04-06T05:51:38;4.00;99.90
42715;DHT22;28351;51.480;5.706;2023-04-06T05:54:04;4.00;99.90
42715;DHT22;28351;51.480;5.706;2023-04-06T05:56:30;4.10;99.90
42715;DHT22;28351;51.480;5.706;2023-04-06T05:58:57;4.20;99.90
42715;DHT22;28351;51.480;5.706;2023-04-06T06:01:22;4.30;99.90
42715;DHT22;28351;51.480;5.706;2023-04-06T06:03:48;4.40;99.90
42715;DHT22;28351;51.480;5.706;2023-04-06T06:06:13;4.50;99.90
42715;DHT22;28351;51.480;5.706;2023-04-06T06:08:39;4.50;99.90
42715;DHT22;28351;51.480;5.706;2023-04-06T06:11:05;4.60;99.90
42715;DHT22;28351;51.480;5.706;2023-04-06T06:13:30;4.70;99.90
42715;DHT22;28351;51.480;5.706;2023-04-06T06:15:56;4.80;99.90
42715;DHT22;28351;51.480;5.706;2023-04-06T06:18:21;4.80;99.90
42715;DHT22;28351;51.480;5.706;2023-04-06T06:20:47;4.90;99.90
42715;DHT22;28351;51.480;5.706;2023-04-06T06:23:12;5.00;99.90
42715;DHT22;28351;51.480;5.706;2023-04-06T06:25:39;5.10;99.90
42715;DHT22;28351;51.480;5.706;2023-04-06T06:28:06;5.10;99.90
42715;DHT22;28351;51.480;5.706;2023-04-06T06:30:32;5.20;99.90
42715;DHT22;28351;51.480;5.706;2023-04-06T06:32:58;5.40;99.90
42715;DHT22;28351;51.480;5.706;2023-04-06T06:35:26;5.40;99.90
42715;DHT22;28351;51.480;5.706;2023-04-06T06:37:51;5.50;99.90
42715;DHT22;28351;51.480;5.706;2023-04-06T06:40:17;5.60;99.90
42715;DHT22;28351;51.480;5.706;2023-04-06T06:42:43;5.70;99.90
42715;DHT22;28351;51.480;5.706;2023-04-06T06:45:09;5.80;99.90
42715;DHT22;28351;51.480;5.706;2023-04-06T06:47:35;5.80;99.90
42715;DHT22;28351;51.480;5.706;2023-04-06T06:50:00;6.00;99.90
42715;DHT22;28351;51.480;5.706;2023-04-06T06:52:28;6.10;99.90
42715;DHT22;28351;51.480;5.706;2023-04-06T06:54:54;6.20;99.90
42715;DHT22;28351;51.480;5.706;2023-04-06T06:57:19;6.20;99.90
42715;DHT22;28351;51.480;5.706;2023-04-06T06:59:45;6.30;99.90
42715;DHT22;28351;51.480;5.706;2023-04-06T07:02:11;6.40;99.90
42715;DHT22;28351;51.480;5.706;2023-04-06T07:04:36;6.40;99.90
42715;DHT22;28351;51.480;5.706;2023-04-06T07:07:02;6.50;99.90
42715;DHT22;28351;51.480;5.706;2023-04-06T07:09:28;6.60;99.90
42715;DHT22;28351;51.480;5.706;2023-04-06T07:11:54;6.60;99.90
42715;DHT22;28351;51.480;5.706;2023-04-06T07:14:24;6.70;99.90
42715;DHT22;28351;51.480;5.706;2023-04-06T07:16:51;6.60;99.90
42715;DHT22;28351;51.480;5.706;2023-04-06T07:19:17;6.70;99.90
42715;DHT22;28351;51.480;5.706;2023-04-06T07:21:42;6.70;99.50
42715;DHT22;28351;51.480;5.706;2023-04-06T07:24:08;6.70;99.30
42715;DHT22;28351;51.480;5.706;2023-04-06T07:26:34;6.80;99.60
42715;DHT22;28351;51.480;5.706;2023-04-06T07:28:59;6.90;99.60
42715;DHT22;28351;51.480;5.706;2023-04-06T07:31:25;7.00;99.70
42715;DHT22;28351;51.480;5.706;2023-04-06T07:33:50;7.10;99.90
42715;DHT22;28351;51.480;5.706;2023-04-06T07:36:16;7.20;98.90
42715;DHT22;28351;51.480;5.706;2023-04-06T07:38:42;7.20;98.50
42715;DHT22;28351;51.480;5.706;2023-04-06T07:41:07;7.20;98.80
42715;DHT22;28351;51.480;5.706;2023-04-06T07:43:36;7.20;98.70
42715;DHT22;28351;51.480;5.706;2023-04-06T07:46:05;7.40;99.00
42715;DHT22;28351;51.480;5.706;2023-04-06T07:48:31;7.30;98.90
42715;DHT22;28351;51.480;5.706;2023-04-06T07:51:06;7.30;98.40
42715;DHT22;28351;51.480;5.706;2023-04-06T07:53:32;7.40;98.60
42715;DHT22;28351;51.480;5.706;2023-04-06T07:55:58;7.40;98.80
42715;DHT22;28351;51.480;5.706;2023-04-06T07:58:24;7.50;99.00
42715;DHT22;28351;51.480;5.706;2023-04-06T08:00:49;7.70;98.70
42715;DHT22;28351;51.480;5.706;2023-04-06T08:03:15;7.80;99.10
42715;DHT22;28351;51.480;5.706;2023-04-06T08:05:42;7.80;98.70
42715;DHT22;28351;51.480;5.706;2023-04-06T08:08:08;7.90;98.90
42715;DHT22;28351;51.480;5.706;2023-04-06T08:10:33;8.10;98.70
42715;DHT22;28351;51.480;5.706;2023-04-06T08:13:00;8.10;98.40
42715;DHT22;28351;51.480;5.706;2023-04-06T08:15:25;8.20;98.60
42715;DHT22;28351;51.480;5.706;2023-04-06T08:17:51;8.30;98.30
42715;DHT22;28351;51.480;5.706;2023-04-06T08:20:20;8.30;97.80
42715;DHT22;28351;51.480;5.706;2023-04-06T08:22:46;8.30;97.80
42715;DHT22;28351;51.480;5.706;2023-04-06T08:25:14;8.30;97.80
42715;DHT22;28351;51.480;5.706;2023-04-06T08:27:40;8.30;97.60
42715;DHT22;28351;51.480;5.706;2023-04-06T08:30:06;8.40;97.80
42715;DHT22;28351;51.480;5.706;2023-04-06T08:32:32;8.40;97.50
42715;DHT22;28351;51.480;5.706;2023-04-06T08:35:01;8.40;97.90
42715;DHT22;28351;51.480;5.706;2023-04-06T08:37:29;8.50;97.70
42715;DHT22;28351;51.480;5.706;2023-04-06T08:39:55;8.50;98.20
42715;DHT22;28351;51.480;5.706;2023-04-06T08:42:21;8.60;97.60
42715;DHT22;28351;51.480;5.706;2023-04-06T08:44:49;8.80;97.90
42715;DHT22;28351;51.480;5.706;2023-04-06T08:47:16;8.90;97.50
42715;DHT22;28351;51.480;5.706;2023-04-06T08:49:43;8.90;97.40
42715;DHT22;28351;51.480;5.706;2023-04-06T08:52:10;9.10;97.20
42715;DHT22;28351;51.480;5.706;2023-04-06T08:54:36;9.10;97.10
42715;DHT22;28351;51.480;5.706;2023-04-06T08:57:02;9.20;97.40
42715;DHT22;28351;51.480;5.706;2023-04-06T08:59:28;9.30;96.50
42715;DHT22;28351;51.480;5.706;2023-04-06T09:01:55;9.40;96.80
42715;DHT22;28351;51.480;5.706;2023-04-06T09:04:21;9.50;96.60
42715;DHT22;28351;51.480;5.706;2023-04-06T09:06:46;9.60;96.60
42715;DHT22;28351;51.480;5.706;2023-04-06T09:09:12;9.60;96.20
42715;DHT22;28351;51.480;5.706;2023-04-06T09:11:49;9.50;96.40
42715;DHT22;28351;51.480;5.706;2023-04-06T09:14:15;9.60;96.80
42715;DHT22;28351;51.480;5.706;2023-04-06T09:16:42;9.80;96.70
42715;DHT22;28351;51.480;5.706;2023-04-06T09:19:09;9.90;96.70
42715;DHT22;28351;51.480;5.706;2023-04-06T09:21:35;10.00;96.40
42715;DHT22;28351;51.480;5.706;2023-04-06T09:24:02;10.10;96.30
42715;DHT22;28351;51.480;5.706;2023-04-06T09:26:29;10.20;96.20
42715;DHT22;28351;51.480;5.706;2023-04-06T09:28:57;10.20;96.20
42715;DHT22;28351;51.480;5.706;2023-04-06T09:31:28;10.30;96.20
42715;DHT22;28351;51.480;5.706;2023-04-06T09:33:55;10.50;95.50
42715;DHT22;28351;51.480;5.706;2023-04-06T09:36:31;10.50;95.90
42715;DHT22;28351;51.480;5.706;2023-04-06T09:38:58;10.50;95.40
42715;DHT22;28351;51.480;5.706;2023-04-06T09:41:28;10.50;95.70
42715;DHT22;28351;51.480;5.706;2023-04-06T09:44:08;10.70;95.40
42715;DHT22;28351;51.480;5.706;2023-04-06T09:46:45;10.80;95.60
42715;DHT22;28351;51.480;5.706;2023-04-06T09:49:12;10.90;95.60
42715;DHT22;28351;51.480;5.706;2023-04-06T09:51:54;10.80;96.10
42715;DHT22;28351;51.480;5.706;2023-04-06T09:54:22;11.00;95.80
42715;DHT22;28351;51.480;5.706;2023-04-06T09:56:56;11.20;95.90
42715;DHT22;28351;51.480;5.706;2023-04-06T10:02:50;11.50;96.20
42715;DHT22;28351;51.480;5.706;2023-04-06T10:05:43;11.50;96.60
42715;DHT22;28351;51.480;5.706;2023-04-06T10:08:13;11.70;95.90
42715;DHT22;28351;51.480;5.706;2023-04-06T10:10:39;11.80;95.90
42715;DHT22;28351;51.480;5.706;2023-04-06T10:13:05;11.50;95.50
42715;DHT22;28351;51.480;5.706;2023-04-06T10:15:31;11.40;96.10
42715;DHT22;28351;51.480;5.706;2023-04-06T10:18:01;11.40;96.10
42715;DHT22;28351;51.480;5.706;2023-04-06T10:23:10;11.20;96.60
42715;DHT22;28351;51.480;5.706;2023-04-06T10:25:55;11.20;97.50
42715;DHT22;28351;51.480;5.706;2023-04-06T10:28:21;11.30;97.80
42715;DHT22;28351;51.480;5.706;2023-04-06T10:30:47;11.40;97.80
42715;DHT22;28351;51.480;5.706;2023-04-06T10:33:17;11.30;97.50
42715;DHT22;28351;51.480;5.706;2023-04-06T10:35:43;11.30;97.70
42715;DHT22;28351;51.480;5.706;2023-04-06T10:38:13;11.30;98.10
42715;DHT22;28351;51.480;5.706;2023-04-06T10:40:42;11.10;98.40
42715;DHT22;28351;51.480;5.706;2023-04-06T10:43:13;10.90;98.60
42715;DHT22;28351;51.480;5.706;2023-04-06T10:45:40;10.70;99.60
42715;DHT22;28351;51.480;5.706;2023-04-06T10:48:17;10.60;99.70
42715;DHT22;28351;51.480;5.706;2023-04-06T10:50:50;10.30;99.80
42715;DHT22;28351;51.480;5.706;2023-04-06T10:53:26;10.20;99.90
42715;DHT22;28351;51.480;5.706;2023-04-06T10:55:54;10.20;99.90
42715;DHT22;28351;51.480;5.706;2023-04-06T10:58:25;10.10;99.90
42715;DHT22;28351;51.480;5.706;2023-04-06T11:00:51;10.00;99.90
42715;DHT22;28351;51.480;5.706;2023-04-06T11:03:17;10.00;99.90
42715;DHT22;28351;51.480;5.706;2023-04-06T11:05:47;10.00;99.90
42715;DHT22;28351;51.480;5.706;2023-04-06T11:08:29;9.90;99.90
42715;DHT22;28351;51.480;5.706;2023-04-06T11:11:11;9.80;99.90
42715;DHT22;28351;51.480;5.706;2023-04-06T11:13:44;9.90;99.90
42715;DHT22;28351;51.480;5.706;2023-04-06T11:16:16;9.90;99.90
42715;DHT22;28351;51.480;5.706;2023-04-06T11:18:49;9.80;99.90
42715;DHT22;28351;51.480;5.706;2023-04-06T11:21:18;9.70;99.90
42715;DHT22;28351;51.480;5.706;2023-04-06T11:23:43;9.80;99.90
42715;DHT22;28351;51.480;5.706;2023-04-06T11:26:13;9.70;99.90
42715;DHT22;28351;51.480;5.706;2023-04-06T11:28:43;9.60;99.90
42715;DHT22;28351;51.480;5.706;2023-04-06T11:31:09;9.50;99.90
42715;DHT22;28351;51.480;5.706;2023-04-06T11:33:39;9.40;99.90
42715;DHT22;28351;51.480;5.706;2023-04-06T11:36:05;9.30;99.90
42715;DHT22;28351;51.480;5.706;2023-04-06T11:38:32;9.10;99.90
42715;DHT22;28351;51.480;5.706;2023-04-06T11:40:57;8.90;99.90
42715;DHT22;28351;51.480;5.706;2023-04-06T11:43:32;8.90;99.90
42715;DHT22;28351;51.480;5.706;2023-04-06T11:46:02;8.80;99.90
42715;DHT22;28351;51.480;5.706;2023-04-06T11:48:28;8.80;99.90
42715;DHT22;28351;51.480;5.706;2023-04-06T11:50:58;8.70;99.90
42715;DHT22;28351;51.480;5.706;2023-04-06T11:53:28;8.60;99.90
42715;DHT22;28351;51.480;5.706;2023-04-06T11:55:55;8.60;99.90
42715;DHT22;28351;51.480;5.706;2023-04-06T11:58:20;8.50;99.90
42715;DHT22;28351;51.480;5.706;2023-04-06T12:00:46;8.50;99.90
42715;DHT22;28351;51.480;5.706;2023-04-06T12:03:12;8.60;99.90
42715;DHT22;28351;51.480;5.706;2023-04-06T12:05:38;8.70;99.90
42715;DHT22;28351;51.480;5.706;2023-04-06T12:08:04;8.80;99.90
42715;DHT22;28351;51.480;5.706;2023-04-06T12:10:30;8.90;99.90
42715;DHT22;28351;51.480;5.706;2023-04-06T12:12:55;9.00;99.90
42715;DHT22;28351;51.480;5.706;2023-04-06T12:15:21;9.10;99.90
42715;DHT22;28351;51.480;5.706;2023-04-06T12:17:47;9.20;99.90
42715;DHT22;28351;51.480;5.706;2023-04-06T12:20:13;9.20;99.90
42715;DHT22;28351;51.480;5.706;2023-04-06T12:22:39;9.20;99.90
42715;DHT22;28351;51.480;5.706;2023-04-06T12:25:05;9.20;99.90
42715;DHT22;28351;51.480;5.706;2023-04-06T12:27:32;9.40;99.90
42715;DHT22;28351;51.480;5.706;2023-04-06T12:29:58;9.40;99.90
42715;DHT22;28351;51.480;5.706;2023-04-06T12:32:24;9.50;99.90
42715;DHT22;28351;51.480;5.706;2023-04-06T12:34:52;9.50;99.90
42715;DHT22;28351;51.480;5.706;2023-04-06T12:37:20;9.60;99.90
42715;DHT22;28351;51.480;5.706;2023-04-06T12:39:46;9.70;99.90
42715;DHT22;28351;51.480;5.706;2023-04-06T12:42:12;9.60;99.90
42715;DHT22;28351;51.480;5.706;2023-04-06T12:44:39;9.50;99.90
42715;DHT22;28351;51.480;5.706;2023-04-06T12:47:04;9.40;99.90
42715;DHT22;28351;51.480;5.706;2023-04-06T12:49:30;9.30;99.90
42715;DHT22;28351;51.480;5.706;2023-04-06T12:51:57;9.20;99.90
42715;DHT22;28351;51.480;5.706;2023-04-06T12:54:22;9.20;99.90
42715;DHT22;28351;51.480;5.706;2023-04-06T12:56:48;9.10;99.90
42715;DHT22;28351;51.480;5.706;2023-04-06T12:59:13;9.00;99.90
42715;DHT22;28351;51.480;5.706;2023-04-06T13:01:39;9.00;99.90
42715;DHT22;28351;51.480;5.706;2023-04-06T13:04:05;9.10;99.90
42715;DHT22;28351;51.480;5.706;2023-04-06T13:06:31;9.30;99.90
42715;DHT22;28351;51.480;5.706;2023-04-06T13:08:56;9.30;99.90
42715;DHT22;28351;51.480;5.706;2023-04-06T13:11:22;9.30;99.90
42715;DHT22;28351;51.480;5.706;2023-04-06T13:13:51;9.40;99.90
42715;DHT22;28351;51.480;5.706;2023-04-06T13:16:17;9.30;99.90
42715;DHT22;28351;51.480;5.706;2023-04-06T13:18:43;9.40;99.90
42715;DHT22;28351;51.480;5.706;2023-04-06T13:21:08;9.30;99.90
42715;DHT22;28351;51.480;5.706;2023-04-06T13:23:34;9.40;99.90
42715;DHT22;28351;51.480;5.706;2023-04-06T13:26:05;9.40;99.90
42715;DHT22;28351;51.480;5.706;2023-04-06T13:28:32;9.50;99.90
42715;DHT22;28351;51.480;5.706;2023-04-06T13:30:59;9.40;99.90
42715;DHT22;28351;51.480;5.706;2023-04-06T13:33:26;9.50;99.90
42715;DHT22;28351;51.480;5.706;2023-04-06T13:35:52;9.50;99.90
42715;DHT22;28351;51.480;5.706;2023-04-06T13:38:18;9.50;99.90
42715;DHT22;28351;51.480;5.706;2023-04-06T13:40:43;9.40;99.90
42715;DHT22;28351;51.480;5.706;2023-04-06T13:43:09;9.50;99.90
42715;DHT22;28351;51.480;5.706;2023-04-06T13:45:35;9.50;99.90
42715;DHT22;28351;51.480;5.706;2023-04-06T13:48:01;9.50;99.90
42715;DHT22;28351;51.480;5.706;2023-04-06T13:50:27;9.50;99.90
42715;DHT22;28351;51.480;5.706;2023-04-06T13:52:56;9.50;99.90
42715;DHT22;28351;51.480;5.706;2023-04-06T13:55:21;9.40;99.90
42715;DHT22;28351;51.480;5.706;2023-04-06T13:57:50;9.20;99.90
42715;DHT22;28351;51.480;5.706;2023-04-06T14:00:15;9.10;99.90
42715;DHT22;28351;51.480;5.706;2023-04-06T14:02:41;9.10;99.90
42715;DHT22;28351;51.480;5.706;2023-04-06T14:05:07;9.00;99.90
42715;DHT22;28351;51.480;5.706;2023-04-06T14:07:33;9.00;99.90
42715;DHT22;28351;51.480;5.706;2023-04-06T14:09:58;9.00;99.90
42715;DHT22;28351;51.480;5.706;2023-04-06T14:12:25;8.80;99.90
42715;DHT22;28351;51.480;5.706;2023-04-06T14:14:52;8.80;99.90
42715;DHT22;28351;51.480;5.706;2023-04-06T14:17:17;8.80;99.90
42715;DHT22;28351;51.480;5.706;2023-04-06T14:19:47;8.80;99.90
42715;DHT22;28351;51.480;5.706;2023-04-06T14:22:14;8.80;99.90
42715;DHT22;28351;51.480;5.706;2023-04-06T14:24:39;8.70;99.90
42715;DHT22;28351;51.480;5.706;2023-04-06T14:27:05;8.70;99.90
42715;DHT22;28351;51.480;5.706;2023-04-06T14:29:30;8.60;99.90
42715;DHT22;28351;51.480;5.706;2023-04-06T14:31:56;8.60;99.90
42715;DHT22;28351;51.480;5.706;2023-04-06T14:34:25;8.50;99.90
42715;DHT22;28351;51.480;5.706;2023-04-06T14:36:51;8.50;99.90
42715;DHT22;28351;51.480;5.706;2023-04-06T14:39:17;8.60;99.90
42715;DHT22;28351;51.480;5.706;2023-04-06T14:41:42;8.60;99.90
42715;DHT22;28351;51.480;5.706;2023-04-06T14:44:08;8.40;99.90
42715;DHT22;28351;51.480;5.706;2023-04-06T14:46:37;8.50;99.90
42715;DHT22;28351;51.480;5.706;2023-04-06T14:49:03;8.50;99.90
42715;DHT22;28351;51.480;5.706;2023-04-06T14:51:28;8.50;99.90
42715;DHT22;28351;51.480;5.706;2023-04-06T14:53:54;8.50;99.90
42715;DHT22;28351;51.480;5.706;2023-04-06T14:56:22;8.50;99.90
42715;DHT22;28351;51.480;5.706;2023-04-06T14:58:49;8.50;99.90
42715;DHT22;28351;51.480;5.706;2023-04-06T15:01:16;8.50;99.90
42715;DHT22;28351;51.480;5.706;2023-04-06T15:03:45;8.50;99.90
42715;DHT22;28351;51.480;5.706;2023-04-06T15:06:14;8.50;99.90
42715;DHT22;28351;51.480;5.706;2023-04-06T15:08:43;8.60;99.90
42715;DHT22;28351;51.480;5.706;2023-04-06T15:11:10;8.50;99.90
42715;DHT22;28351;51.480;5.706;2023-04-06T15:13:37;8.50;99.90
42715;DHT22;28351;51.480;5.706;2023-04-06T15:16:03;8.50;99.90
42715;DHT22;28351;51.480;5.706;2023-04-06T15:18:29;8.40;99.90
42715;DHT22;28351;51.480;5.706;2023-04-06T15:20:55;8.50;99.90
42715;DHT22;28351;51.480;5.706;2023-04-06T15:23:20;8.50;99.90
42715;DHT22;28351;51.480;5.706;2023-04-06T15:25:58;8.50;99.90
42715;DHT22;28351;51.480;5.706;2023-04-06T15:28:26;8.50;99.90
42715;DHT22;28351;51.480;5.706;2023-04-06T15:30:52;8.50;99.90
42715;DHT22;28351;51.480;5.706;2023-04-06T15:33:19;8.50;99.90
42715;DHT22;28351;51.480;5.706;2023-04-06T15:35:46;8.40;99.90
42715;DHT22;28351;51.480;5.706;2023-04-06T15:38:14;8.40;99.90
42715;DHT22;28351;51.480;5.706;2023-04-06T15:40:47;8.30;99.90
42715;DHT22;28351;51.480;5.706;2023-04-06T15:46:44;8.30;99.90
42715;DHT22;28351;51.480;5.706;2023-04-06T15:49:12;8.30;99.90
42715;DHT22;28351;51.480;5.706;2023-04-06T15:51:37;8.30;99.90